createdAt,value
2022-09-23T00:01:20.071Z,10.63
2022-09-23T00:03:49.159Z,7.43
2022-09-23T00:06:22.500Z,7.43
2022-09-23T00:08:50.853Z,7.88
2022-09-23T00:11:27.031Z,7.65
2022-09-23T00:13:57.044Z,7.05
2022-09-23T00:16:28.585Z,9.80
2022-09-23T00:18:56.262Z,8.70
2022-09-23T00:21:25.209Z,8.48
2022-09-23T00:23:52.873Z,8.32
2022-09-23T00:26:25.345Z,7.80
2022-09-23T00:28:52.980Z,8.07
2022-09-23T00:31:23.422Z,7.38
2022-09-23T00:33:55.628Z,6.72
2022-09-23T00:36:23.574Z,8.23
2022-09-23T00:38:51.000Z,8.63
2022-09-23T00:41:18.658Z,7.88
2022-09-23T00:43:53.676Z,6.55
2022-09-23T00:46:25.503Z,7.30
2022-09-23T00:48:58.116Z,7.88
2022-09-23T00:51:32.610Z,6.97
2022-09-23T00:54:01.142Z,8.88
2022-09-23T00:56:31.388Z,7.95
2022-09-23T00:59:00.306Z,6.83
2022-09-23T01:01:28.004Z,8.00
2022-09-23T01:03:57.706Z,11.65
2022-09-23T01:06:25.456Z,9.13
2022-09-23T01:08:53.331Z,6.97
2022-09-23T01:11:35.515Z,8.60
2022-09-23T01:14:14.400Z,9.05
2022-09-23T01:16:44.936Z,8.02
2022-09-23T01:19:30.894Z,8.75
2022-09-23T01:22:23.834Z,9.02
2022-09-23T01:25:11.377Z,7.07
2022-09-23T01:27:51.755Z,7.65
2022-09-23T01:30:41.614Z,9.40
2022-09-23T01:33:21.501Z,8.88
2022-09-23T01:36:00.278Z,8.23
2022-09-23T01:38:42.457Z,10.52
2022-09-23T01:41:30.173Z,7.50
2022-09-23T01:44:03.252Z,9.48
2022-09-23T01:46:38.312Z,10.70
2022-09-23T01:49:22.165Z,9.57
2022-09-23T01:52:22.797Z,10.00
2022-09-23T01:55:13.455Z,10.38
2022-09-23T01:58:05.930Z,9.27
2022-09-23T02:00:40.860Z,11.95
2022-09-23T02:03:15.325Z,10.38
2022-09-23T02:05:52.310Z,9.80
2022-09-23T02:08:43.512Z,10.85
2022-09-23T02:11:15.198Z,11.30
2022-09-23T02:13:57.788Z,10.25
2022-09-23T02:16:33.589Z,10.35
2022-09-23T02:19:12.801Z,10.80
2022-09-23T02:21:47.205Z,9.60
2022-09-23T02:24:20.976Z,10.15
2022-09-23T02:27:03.984Z,9.80
2022-09-23T02:29:37.096Z,9.00
2022-09-23T02:32:23.037Z,8.55
2022-09-23T02:35:03.470Z,8.93
2022-09-23T02:37:43.688Z,9.43
2022-09-23T02:40:43.879Z,11.07
2022-09-23T02:43:19.913Z,11.35
2022-09-23T02:45:48.091Z,8.90
2022-09-23T02:48:22.862Z,10.38
2022-09-23T02:50:50.487Z,9.85
2022-09-23T02:53:17.878Z,12.48
2022-09-23T02:55:45.812Z,7.20
2022-09-23T02:58:14.299Z,7.97
2022-09-23T03:00:50.763Z,10.05
2022-09-23T03:03:24.027Z,10.73
2022-09-23T03:05:56.357Z,10.25
2022-09-23T03:08:50.532Z,10.35
2022-09-23T03:11:18.755Z,9.13
2022-09-23T03:13:53.096Z,8.60
2022-09-23T03:16:50.807Z,8.93
2022-09-23T03:19:59.457Z,7.75
2022-09-23T03:22:29.672Z,9.57
2022-09-23T03:25:04.069Z,8.10
2022-09-23T03:27:34.705Z,7.47
2022-09-23T03:30:03.189Z,7.95
2022-09-23T03:32:32.330Z,8.40
2022-09-23T03:35:02.997Z,7.65
2022-09-23T03:37:39.516Z,7.80
2022-09-23T03:40:30.048Z,6.90
2022-09-23T03:42:58.926Z,7.00
2022-09-23T03:45:32.745Z,8.95
2022-09-23T03:48:00.921Z,8.15
2022-09-23T03:50:28.935Z,8.05
2022-09-23T03:52:56.824Z,8.20
2022-09-23T03:55:24.154Z,9.23
2022-09-23T03:57:52.196Z,7.68
2022-09-23T04:00:19.617Z,6.78
2022-09-23T04:02:47.076Z,8.43
2022-09-23T04:05:15.483Z,7.55
2022-09-23T04:07:42.875Z,7.43
2022-09-23T04:10:10.907Z,8.88
2022-09-23T04:12:38.565Z,7.78
2022-09-23T04:15:06.597Z,7.60
2022-09-23T04:17:34.341Z,7.10
2022-09-23T04:20:02.024Z,8.27
2022-09-23T04:22:29.405Z,8.90
2022-09-23T04:24:56.746Z,8.02
2022-09-23T04:27:24.139Z,6.90
2022-09-23T04:29:51.523Z,7.82
2022-09-23T04:32:18.907Z,6.43
2022-09-23T04:34:46.294Z,7.13
2022-09-23T04:37:13.721Z,10.02
2022-09-23T04:39:41.095Z,11.75
2022-09-23T04:42:08.464Z,8.13
2022-09-23T04:44:35.912Z,6.78
2022-09-23T04:47:04.390Z,10.50
2022-09-23T04:49:33.347Z,10.43
2022-09-23T04:52:00.972Z,6.40
2022-09-23T04:54:28.460Z,6.45
2022-09-23T04:56:56.013Z,6.15
2022-09-23T04:59:23.809Z,7.10
2022-09-23T05:01:52.150Z,6.28
2022-09-23T05:04:19.569Z,8.75
2022-09-23T05:06:46.964Z,5.63
2022-09-23T05:09:18.187Z,8.13
2022-09-23T05:11:46.062Z,6.50
2022-09-23T05:14:13.577Z,8.30
2022-09-23T05:16:41.070Z,6.55
2022-09-23T05:19:08.573Z,5.75
2022-09-23T05:21:37.897Z,4.70
2022-09-23T05:24:05.608Z,6.10
2022-09-23T05:26:33.518Z,6.35
2022-09-23T05:29:00.945Z,5.97
2022-09-23T05:31:30.409Z,6.40
2022-09-23T05:34:00.263Z,7.82
2022-09-23T05:36:32.144Z,6.00
2022-09-23T05:39:04.633Z,6.35
2022-09-23T05:41:31.966Z,6.80
2022-09-23T05:43:59.905Z,7.85
2022-09-23T05:46:29.526Z,6.25
2022-09-23T05:49:02.227Z,6.22
2022-09-23T05:51:32.018Z,5.40
2022-09-23T05:54:00.750Z,6.03
2022-09-23T05:56:28.714Z,8.27
2022-09-23T05:58:58.313Z,5.88
2022-09-23T06:01:28.989Z,6.15
2022-09-23T06:03:57.622Z,7.05
2022-09-23T06:06:29.013Z,7.25
2022-09-23T06:08:56.933Z,5.82
2022-09-23T06:11:24.365Z,6.88
2022-09-23T06:13:56.093Z,7.35
2022-09-23T06:16:23.502Z,7.20
2022-09-23T06:18:50.917Z,7.10
2022-09-23T06:21:19.459Z,6.20
2022-09-23T06:23:47.211Z,9.15
2022-09-23T06:26:16.651Z,8.48
2022-09-23T06:28:45.943Z,8.95
2022-09-23T06:31:16.903Z,7.97
2022-09-23T06:33:45.715Z,9.77
2022-09-23T06:36:30.593Z,7.53
2022-09-23T06:39:02.502Z,7.57
2022-09-23T06:41:30.101Z,5.55
2022-09-23T06:43:57.478Z,4.80
2022-09-23T06:46:25.121Z,6.07
2022-09-23T06:48:52.495Z,6.10
2022-09-23T06:51:19.933Z,5.50
2022-09-23T06:53:48.521Z,6.70
2022-09-23T06:56:17.447Z,5.78
2022-09-23T06:58:44.839Z,5.88
2022-09-23T07:01:17.616Z,5.20
2022-09-23T07:03:46.374Z,5.55
2022-09-23T07:06:14.014Z,5.05
2022-09-23T07:08:44.888Z,5.03
2022-09-23T07:11:13.454Z,6.40
2022-09-23T07:13:42.362Z,6.22
2022-09-23T07:16:11.382Z,5.80
2022-09-23T07:18:39.611Z,6.35
2022-09-23T07:21:09.763Z,5.55
2022-09-23T07:23:37.894Z,5.50
2022-09-23T07:26:05.991Z,5.43
2022-09-23T07:28:33.621Z,4.95
2022-09-23T07:31:19.069Z,3.78
2022-09-23T07:33:49.348Z,5.18
2022-09-23T07:36:19.179Z,4.70
2022-09-23T07:38:47.601Z,6.13
2022-09-23T07:41:17.959Z,5.03
2022-09-23T07:43:46.174Z,3.33
2022-09-23T07:46:16.875Z,4.22
2022-09-23T07:48:45.987Z,3.25
2022-09-23T07:51:32.036Z,3.95
2022-09-23T07:54:03.475Z,3.67
2022-09-23T07:56:31.020Z,3.72
2022-09-23T07:59:01.893Z,4.30
2022-09-23T08:01:33.188Z,6.20
2022-09-23T08:04:04.175Z,8.43
2022-09-23T08:06:32.442Z,4.80
2022-09-23T08:09:01.301Z,3.80
2022-09-23T08:11:29.181Z,4.80
2022-09-23T08:13:57.771Z,4.35
2022-09-23T08:16:25.252Z,3.67
2022-09-23T08:18:52.843Z,3.83
2022-09-23T08:21:21.746Z,3.55
2022-09-23T08:23:49.742Z,2.40
2022-09-23T08:26:21.603Z,2.40
2022-09-23T08:28:51.967Z,3.95
2022-09-23T08:31:19.602Z,2.53
2022-09-23T08:33:47.032Z,3.20
2022-09-23T08:36:14.435Z,2.85
2022-09-23T08:38:42.130Z,2.88
2022-09-23T08:41:20.535Z,3.08
2022-09-23T08:43:52.210Z,3.30
2022-09-23T08:46:26.767Z,2.70
2022-09-23T08:48:54.859Z,1.85
2022-09-23T08:51:49.145Z,6.82
2022-09-23T08:54:17.904Z,4.10
2022-09-23T08:56:52.358Z,2.58
2022-09-23T08:59:49.381Z,2.83
2022-09-23T09:02:22.401Z,2.85
2022-09-23T09:04:56.675Z,2.25
2022-09-23T09:07:37.100Z,2.05
2022-09-23T09:10:26.913Z,1.88
2022-09-23T09:13:16.337Z,3.40
2022-09-23T09:16:05.791Z,3.08
2022-09-23T09:18:35.330Z,3.38
2022-09-23T09:21:09.911Z,3.67
2022-09-23T09:23:52.950Z,4.80
2022-09-23T09:26:29.159Z,3.63
2022-09-23T09:29:23.743Z,2.88
2022-09-23T09:31:53.405Z,3.10
2022-09-23T09:34:35.142Z,2.08
2022-09-23T09:37:23.685Z,2.70
2022-09-23T09:39:51.108Z,3.53
2022-09-23T09:42:30.484Z,4.00
2022-09-23T09:45:04.721Z,2.10
2022-09-23T09:47:56.732Z,3.10
2022-09-23T09:50:50.119Z,3.05
2022-09-23T09:53:25.387Z,2.38
2022-09-23T09:56:04.552Z,2.53
2022-09-23T09:58:47.883Z,5.15
2022-09-23T10:01:35.788Z,4.28
2022-09-23T10:04:21.591Z,2.63
2022-09-23T10:07:13.316Z,2.40
2022-09-23T10:09:48.273Z,3.13
2022-09-23T10:12:18.812Z,7.00
2022-09-23T10:14:50.616Z,3.58
2022-09-23T10:17:32.953Z,3.50
2022-09-23T10:20:02.802Z,2.22
2022-09-23T10:22:34.242Z,2.92
2022-09-23T10:25:07.674Z,3.17
2022-09-23T10:27:36.950Z,2.15
2022-09-23T10:30:22.808Z,2.47
2022-09-23T10:32:51.902Z,2.60
2022-09-23T10:35:22.639Z,2.38
2022-09-23T10:37:55.191Z,4.50
2022-09-23T10:41:02.612Z,6.57
2022-09-23T10:44:04.041Z,6.25
2022-09-23T10:46:41.584Z,3.28
2022-09-23T10:49:23.726Z,2.55
2022-09-23T10:52:22.419Z,2.22
2022-09-23T10:55:19.545Z,4.47
2022-09-23T10:58:04.390Z,1.92
2022-09-23T11:00:51.973Z,2.03
2022-09-23T11:03:28.109Z,2.90
2022-09-23T11:06:21.842Z,2.28
2022-09-23T11:09:14.112Z,2.25
2022-09-23T11:11:54.923Z,2.25
2022-09-23T11:14:27.470Z,2.65
2022-09-23T11:17:13.614Z,1.95
2022-09-23T11:20:18.761Z,2.50
2022-09-23T11:23:23.117Z,3.83
2022-09-23T11:25:59.185Z,2.22
2022-09-23T11:28:49.948Z,2.75
2022-09-23T11:31:43.402Z,4.25
2022-09-23T11:34:42.085Z,4.55
2022-09-23T11:37:18.744Z,2.60
2022-09-23T11:40:03.313Z,2.10
2022-09-23T11:42:39.130Z,2.55
2022-09-23T11:45:19.099Z,3.90
2022-09-23T11:47:58.567Z,2.00
2022-09-23T11:50:43.486Z,3.05
2022-09-23T11:53:22.625Z,2.63
2022-09-23T11:56:00.703Z,3.30
2022-09-23T11:58:33.349Z,2.17
2022-09-23T12:01:13.378Z,3.33
2022-09-23T12:03:51.905Z,3.45
2022-09-23T12:06:27.149Z,2.53
2022-09-23T12:09:02.486Z,3.25
2022-09-23T12:12:11.849Z,1.85
2022-09-23T12:15:00.561Z,2.72
2022-09-23T12:17:50.624Z,3.53
2022-09-23T12:20:23.477Z,2.25
2022-09-23T12:23:08.407Z,2.88
2022-09-23T12:26:17.750Z,2.33
2022-09-23T12:28:49.926Z,2.05
2022-09-23T12:31:30.805Z,3.20
2022-09-23T12:34:03.942Z,2.78
2022-09-23T12:36:36.763Z,1.25
2022-09-23T12:39:08.167Z,3.50
2022-09-23T12:41:38.844Z,2.28
2022-09-23T12:44:14.893Z,2.40
2022-09-23T12:46:46.542Z,3.13
2022-09-23T12:49:37.535Z,2.75
2022-09-23T12:52:11.010Z,4.40
2022-09-23T12:54:42.081Z,6.68
2022-09-23T12:59:53.757Z,6.60
2022-09-23T13:02:28.592Z,4.28
2022-09-23T13:05:26.746Z,1.95
2022-09-23T13:08:06.921Z,2.65
2022-09-23T13:10:52.713Z,3.38
2022-09-23T13:13:32.974Z,2.55
2022-09-23T13:16:18.976Z,2.10
2022-09-23T13:19:00.994Z,2.25
2022-09-23T13:21:43.635Z,1.38
2022-09-23T13:24:14.496Z,4.38
2022-09-23T13:26:51.891Z,1.17
2022-09-23T13:29:28.714Z,0.90
2022-09-23T13:32:00.596Z,2.83
2022-09-23T13:34:33.531Z,2.70
2022-09-23T13:37:23.003Z,2.08
2022-09-23T13:39:51.338Z,1.15
2022-09-23T13:42:27.541Z,1.45
2022-09-23T13:44:59.225Z,1.52
2022-09-23T13:47:30.271Z,2.58
2022-09-23T13:49:57.991Z,1.23
2022-09-23T13:52:30.021Z,1.10
2022-09-23T13:54:57.734Z,1.52
2022-09-23T13:57:31.316Z,1.42
2022-09-23T14:00:18.847Z,1.83
2022-09-23T14:02:47.069Z,1.40
2022-09-23T14:05:22.644Z,3.38
2022-09-23T14:07:51.693Z,2.25
2022-09-23T14:10:23.330Z,2.38
2022-09-23T14:12:52.749Z,1.60
2022-09-23T14:15:21.734Z,1.13
2022-09-23T14:17:53.659Z,1.27
2022-09-23T14:20:22.246Z,1.25
2022-09-23T14:23:04.717Z,1.10
2022-09-23T14:25:32.958Z,1.58
2022-09-23T14:28:01.035Z,1.10
2022-09-23T14:30:28.894Z,1.17
2022-09-23T14:32:56.534Z,0.95
2022-09-23T14:35:40.871Z,0.95
2022-09-23T14:38:27.184Z,1.50
2022-09-23T14:41:15.761Z,1.83
2022-09-23T14:43:57.455Z,1.50
2022-09-23T14:46:27.789Z,1.45
2022-09-23T14:49:01.802Z,1.17
2022-09-23T14:51:49.385Z,1.20
2022-09-23T14:54:41.496Z,0.80
2022-09-23T14:57:24.109Z,1.67
2022-09-23T14:59:59.391Z,1.17
2022-09-23T15:02:35.054Z,1.75
2022-09-23T15:05:15.865Z,0.77
2022-09-23T15:07:55.582Z,2.88
2022-09-23T15:10:27.821Z,1.35
2022-09-23T15:13:03.740Z,2.03
2022-09-23T15:15:31.242Z,1.38
2022-09-23T15:18:14.480Z,1.83
2022-09-23T15:21:03.237Z,2.25
2022-09-23T15:23:47.970Z,2.40
2022-09-23T15:26:58.047Z,2.03
2022-09-23T15:29:26.241Z,2.03
2022-09-23T15:31:53.851Z,1.98
2022-09-23T15:34:21.782Z,3.05
2022-09-23T15:36:49.749Z,3.03
2022-09-23T15:39:17.229Z,2.97
2022-09-23T15:41:44.632Z,1.90
2022-09-23T15:44:17.479Z,2.67
2022-09-23T15:46:49.992Z,3.03
2022-09-23T15:49:39.238Z,1.98
2022-09-23T15:52:08.431Z,3.60
2022-09-23T15:54:35.851Z,2.47
2022-09-23T15:57:03.380Z,2.80
2022-09-23T15:59:31.166Z,2.45
2022-09-23T16:02:03.785Z,3.28
2022-09-23T16:04:31.865Z,3.80
2022-09-23T16:07:00.368Z,5.75
2022-09-23T16:09:31.593Z,5.53
2022-09-23T16:12:02.006Z,8.00
2022-09-23T16:14:29.388Z,8.77
2022-09-23T16:16:56.792Z,7.50
2022-09-23T16:19:24.273Z,8.65
2022-09-23T16:21:51.738Z,9.02
2022-09-23T16:24:19.275Z,7.05
2022-09-23T16:26:48.257Z,4.10
2022-09-23T16:29:16.215Z,4.60
2022-09-23T16:31:43.771Z,6.82
2022-09-23T16:34:11.178Z,7.50
2022-09-23T16:36:41.458Z,8.23
2022-09-23T16:39:12.685Z,11.23
2022-09-23T16:41:41.179Z,13.38
2022-09-23T16:44:10.791Z,11.73
2022-09-23T16:46:39.418Z,14.07
2022-09-23T16:49:06.947Z,16.50
2022-09-23T16:51:40.673Z,27.35
2022-09-23T16:54:12.669Z,17.83
2022-09-23T16:56:45.654Z,20.83
2022-09-23T16:59:15.272Z,27.48
2022-09-23T17:02:01.085Z,45.97
2022-09-23T17:04:28.753Z,23.67
2022-09-23T17:06:56.772Z,20.67
2022-09-23T17:09:26.984Z,17.75
2022-09-23T17:12:04.384Z,17.07
2022-09-23T17:14:31.774Z,17.60
2022-09-23T17:16:59.178Z,14.85
2022-09-23T17:19:26.614Z,14.93
2022-09-23T17:21:54.372Z,13.60
2022-09-23T17:24:21.766Z,18.52
2022-09-23T17:26:52.790Z,10.98
2022-09-23T17:29:20.851Z,9.98
2022-09-23T17:31:48.304Z,4.22
2022-09-23T17:34:16.436Z,10.32
2022-09-23T17:36:43.863Z,7.13
2022-09-23T17:39:11.454Z,7.78
2022-09-23T17:41:39.368Z,10.95
2022-09-23T17:44:08.143Z,7.97
2022-09-23T17:46:35.504Z,4.65
2022-09-23T17:49:04.122Z,6.32
2022-09-23T17:51:31.605Z,4.28
2022-09-23T17:53:59.060Z,6.57
2022-09-23T17:56:29.924Z,5.95
2022-09-23T17:59:00.996Z,7.20
2022-09-23T18:04:01.231Z,4.35
2022-09-23T18:06:35.530Z,4.43
2022-09-23T18:09:05.752Z,5.22
2022-09-23T18:11:38.808Z,7.30
2022-09-23T18:14:18.552Z,9.07
2022-09-23T18:16:50.530Z,10.82
2022-09-23T18:19:20.773Z,7.53
2022-09-23T18:21:50.736Z,7.23
2022-09-23T18:24:31.805Z,6.20
2022-09-23T18:27:00.382Z,6.07
2022-09-23T18:29:28.748Z,9.93
2022-09-23T18:31:56.269Z,8.38
2022-09-23T18:34:23.773Z,11.82
2022-09-23T18:36:51.369Z,6.60
2022-09-23T18:39:18.768Z,7.63
2022-09-23T18:41:46.094Z,5.80
2022-09-23T18:44:13.474Z,5.70
2022-09-23T18:46:40.801Z,4.43
2022-09-23T18:49:27.900Z,3.88
2022-09-23T18:51:57.343Z,4.30
2022-09-23T18:54:27.405Z,6.18
2022-09-23T18:56:55.145Z,5.90
2022-09-23T18:59:25.256Z,6.30
2022-09-23T19:01:55.685Z,6.45
2022-09-23T19:04:25.488Z,8.88
2022-09-23T19:06:54.080Z,3.90
2022-09-23T19:09:21.415Z,5.88
2022-09-23T19:11:52.430Z,7.20
2022-09-23T19:14:20.215Z,7.68
2022-09-23T19:16:49.304Z,6.00
2022-09-23T19:19:16.978Z,7.22
2022-09-23T19:21:44.463Z,7.40
2022-09-23T19:24:14.680Z,9.00
2022-09-23T19:26:42.400Z,8.93
2022-09-23T19:29:19.726Z,8.95
2022-09-23T19:31:47.906Z,5.47
2022-09-23T19:34:17.839Z,7.20
2022-09-23T19:36:46.855Z,5.13
2022-09-23T19:39:18.807Z,4.75
2022-09-23T19:41:47.212Z,4.10
2022-09-23T19:44:15.323Z,5.00
2022-09-23T19:46:45.460Z,7.55
2022-09-23T19:49:13.716Z,6.22
2022-09-23T19:51:41.231Z,4.22
2022-09-23T19:54:09.317Z,4.82
2022-09-23T19:56:37.489Z,3.90
2022-09-23T19:59:07.345Z,3.90
2022-09-23T20:01:35.202Z,3.75
2022-09-23T20:04:03.285Z,9.05
2022-09-23T20:06:34.320Z,14.38
2022-09-23T20:09:02.304Z,14.65
2022-09-23T20:11:29.754Z,9.07
2022-09-23T20:14:01.835Z,12.48
2022-09-23T20:16:32.710Z,9.65
2022-09-23T20:19:01.390Z,16.45
2022-09-23T20:21:29.673Z,10.65
2022-09-23T20:23:58.089Z,9.07
2022-09-23T20:26:44.408Z,6.82
2022-09-23T20:29:12.429Z,5.55
2022-09-23T20:31:41.590Z,4.47
2022-09-23T20:34:10.794Z,4.25
2022-09-23T20:36:40.155Z,3.67
2022-09-23T20:39:07.950Z,5.40
2022-09-23T20:41:37.956Z,3.45
2022-09-23T20:44:14.135Z,7.00
2022-09-23T20:46:48.532Z,6.93
2022-09-23T20:49:17.343Z,3.83
2022-09-23T20:51:44.838Z,4.05
2022-09-23T20:54:12.539Z,4.93
2022-09-23T20:56:39.926Z,4.35
2022-09-23T20:59:07.355Z,4.60
2022-09-23T21:01:36.669Z,3.83
2022-09-23T21:04:05.870Z,3.88
2022-09-23T21:06:35.121Z,4.93
2022-09-23T21:09:03.529Z,3.88
2022-09-23T21:11:32.218Z,4.00
2022-09-23T21:14:01.333Z,4.28
2022-09-23T21:16:29.619Z,3.80
2022-09-23T21:18:57.779Z,4.78
2022-09-23T21:21:25.506Z,2.95
2022-09-23T21:23:52.920Z,5.50
2022-09-23T21:26:23.361Z,8.27
2022-09-23T21:28:53.441Z,6.13
2022-09-23T21:31:23.695Z,5.53
2022-09-23T21:34:00.066Z,4.57
2022-09-23T21:36:29.742Z,3.25
2022-09-23T21:38:58.143Z,3.53
2022-09-23T21:41:25.930Z,5.15
2022-09-23T21:43:56.746Z,4.10
2022-09-23T21:46:25.394Z,4.07
2022-09-23T21:48:55.142Z,5.10
2022-09-23T21:51:25.679Z,3.75
2022-09-23T21:53:55.135Z,4.65
2022-09-23T21:56:27.852Z,6.18
2022-09-23T21:58:56.861Z,4.68
2022-09-23T22:01:26.980Z,5.55
2022-09-23T22:03:59.647Z,6.20
2022-09-23T22:06:28.540Z,6.95
2022-09-23T22:09:01.696Z,3.63
2022-09-23T22:11:50.648Z,4.07
2022-09-23T22:14:19.902Z,4.43
2022-09-23T22:16:47.488Z,4.25
2022-09-23T22:19:15.670Z,3.22
2022-09-23T22:21:45.218Z,4.50
2022-09-23T22:24:13.301Z,5.20
2022-09-23T22:26:42.752Z,3.67
2022-09-23T22:29:31.789Z,3.28
2022-09-23T22:32:22.638Z,4.35
2022-09-23T22:34:51.974Z,3.03
2022-09-23T22:37:21.836Z,3.50
2022-09-23T22:39:49.212Z,4.03
2022-09-23T22:42:16.809Z,3.78
2022-09-23T22:44:44.173Z,3.58
2022-09-23T22:47:11.494Z,4.85
2022-09-23T22:49:38.897Z,4.35
2022-09-23T22:52:08.100Z,3.90
2022-09-23T22:54:36.007Z,4.80
2022-09-23T22:57:07.985Z,4.20
2022-09-23T22:59:37.461Z,6.07
2022-09-23T23:02:06.749Z,2.97
2022-09-23T23:04:34.229Z,4.35
2022-09-23T23:07:03.226Z,4.75
2022-09-23T23:09:30.616Z,4.63
2022-09-23T23:11:58.069Z,6.05
2022-09-23T23:14:26.537Z,4.78
2022-09-23T23:16:54.515Z,4.53
2022-09-23T23:19:21.962Z,5.05
2022-09-23T23:21:50.597Z,3.38
2022-09-23T23:24:20.711Z,4.20
2022-09-23T23:26:49.041Z,3.55
2022-09-23T23:29:18.535Z,6.78
2022-09-23T23:31:46.731Z,3.95
2022-09-23T23:34:19.984Z,5.70
2022-09-23T23:36:54.969Z,4.65
2022-09-23T23:39:24.563Z,4.05
2022-09-23T23:41:56.510Z,6.70
2022-09-23T23:44:25.742Z,3.90
2022-09-23T23:46:54.505Z,5.35
2022-09-23T23:49:22.097Z,4.25
2022-09-23T23:51:50.061Z,3.75
2022-09-23T23:54:17.718Z,5.40
2022-09-23T23:56:45.090Z,3.22
2022-09-23T23:59:12.632Z,3.63
